TyumenSpecAvia YK42 at Saratov on Jul 14th 2019, hydraulic failure, runway excursion on landing

Last Update: July 15, 2019 / 16:48:17 GMT/Zulu time

Bookmark this article
Incident Facts

Date of incident
Jul 14, 2019

Classification
Incident

Flight number
TUM-9722

Destination
Saratov, Russia

Aircraft Registration
RA-42418

Aircraft Type
YAKOVLEV Yak-142

ICAO Type Designator
YK42

Airport ICAO Code
UWSS

A TyumenSpecAvia Yakovlev Yak-42D, registration RA-42418 performing flight TUM-9722 from Surgut to Saratov (Russia) with 110 passengers and 8 crew, reported a hydraulic failure during the approach. The aircraft continued to land on Saratov's runway 30 at 17:46L (13:46Z) but veered right off the runway and came to a stop with all gear on soft ground abeam the landing zone of the opposite runway. There were no injuries, the aircraft sustained minor if any damage.

Saratov Airlines reported the flight Surgut to Saratov went off the runway while landing. None of the 110 passengers and 8 crew were injured.

A number of Russian's news agencies claim the runway excursion occurred during takeoff for flight TUM-9723.

Metars:
UWSS 141500Z 35004MPS 9999 FEW050CB SCT060 23/12 Q1008 R30/010095 NOSIG RMK QFE742=
UWSS 141430Z 35005MPS 9999 FEW050TCU SCT060 23/11 Q1008 R30/010095 NOSIG RMK QFE743=
UWSS 141400Z 33002MPS 9999 FEW050TCU SCT060 BKN200 23/11 Q1008 R30/010095 NOSIG RMK QFE743=
UWSS 141330Z 28002MPS CAVOK 23/13 Q1008 R30/010095 NOSIG RMK QFE743=
UWSS 141300Z VRB01MPS CAVOK 23/13 Q1008 R30/010095 NOSIG RMK QFE743=
UWSS 141230Z VRB01MPS CAVOK 23/13 Q1008 R30/010095 NOSIG RMK QFE743=
UWSS 141200Z VRB01MPS CAVOK 23/13 Q1008 R30/010095 NOSIG RMK QFE743=
UWSS 141130Z VRB01MPS CAVOK 21/12 Q1008 R30/010095 NOSIG RMK QFE742=
UWSS 141100Z VRB01MPS CAVOK 21/12 Q1008 R30/010095 NOSIG RMK QFE742=
UWSS 141030Z 33002MPS 9999 SCT050CB BKN100 21/14 Q1008 R30/010095 NOSIG RMK QFE743=
UWSS 141000Z 34005MPS 9999 SCT050CB BKN100 21/14 Q1008 R30/010095 NOSIG RMK QFE743=
Aircraft Registration Data
Registration mark
RA-42418
Country of Registration
Russia
Date of Registration
Qbmn diqbAnk Subscribe to unlock
Certification Basis
Manufacturer
Aircraft Model / Type
Yak-42D
ICAO Aircraft Type
YK42
Serial Number
Engine Count
Incident Facts

Date of incident
Jul 14, 2019

Classification
Incident

Flight number
TUM-9722

Destination
Saratov, Russia

Aircraft Registration
RA-42418

Aircraft Type
YAKOVLEV Yak-142

ICAO Type Designator
YK42

Airport ICAO Code
UWSS

This article is published under license from Avherald.com. © of text by Avherald.com.
Article source

You can read 2 more free articles without a subscription.

Subscribe now and continue reading without any limits!

Are you a subscriber? Login
Subscribe

Read unlimited articles and receive our daily update briefing. Gain better insights into what is happening in commercial aviation safety.

Free newsletter

Want to know more and stay ahead? Get our free weekly newsletter and join 5470 existing subscribers.

By subscribing, you accept our terms and conditions and confirm that you've read our privacy policy.

Send tip

Support AeroInside by sending a small tip amount.

Newest articles

Subscribe today

Are you researching aviation incidents? Get access to AeroInside Insights, unlimited read access and receive the daily newsletter.

Pick your plan and subscribe

Partner

Blockaviation logo

A new way to document and demonstrate airworthiness compliance and aircraft value. Find out more.

Virtual Speech logo

ELITE Simulation Solutions is a leading global provider of Flight Simulation Training Devices, IFR training software as well as flight controls and related services. Find out more.

Get updates

Never miss an article from AeroInside. Subscribe to our free weekly newsletter and join 5470 existing subscribers.

By subscribing, you accept our terms and conditions and that you've read our privacy policy.

AeroInside Blog
Popular aircraft
Airbus A320
Boeing 737-800
Boeing 737-800 MAX
Popular airlines
American Airlines
United
Delta
Air Canada
Lufthansa
British Airways